TN43 weather

Isle-A-Port STOLport
Memphis, Tennessee, United States

Public forecast

Using degrees Fahrenheit for public forecast. Weather courtesy of forecast.io.

METAR (pilot weather report)

Closest report is West Memphis Municipal Airport, 6.4 nm (11.8 km) WNW. Retrieved 2019/08/19 14:53 UTC (1 hour ago):

KAWM 191453Z AUTO 19005KT 10SM CLR 29/26 A3003 RMK AO2 SLP164 T02940256 51007 $

TAF (pilot weather forecast)

Closest forecast is Memphis International Airport, 7.5 nm (13.8 km) ESE. Retrieved 2019/08/19 12:34 UTC (4 hours ago):

TAF KMEM 191132Z 1912/2018 14003KT P6SM FEW250 FM191500 19005KT P6SM SCT035 FM192100 17005KT P6SM VCSH SCT040 BKN250 FM200100 18003KT P6SM SCT250 TEMPO 2009/2013 5SM BR